Allerte
Precipitazioni in corso 

Pozzuoli

Allerta Gelo (░C)  

Nessuna

Allerta Vento (km/h)  

Nessuna

Scarsa VisibilitÓ (m) 

Nessuna

Allerta Caldo (░C)  

Nessuna

Allerta Afa (░C-UR)  

Nessuna

Dati e Grafici Climatici 3-7 gg
L'OMTeA propone un elaborazione dei più importanti parametri meteorologici rilevati dalle stazioni che hanno aderito al progetto di monitoraggio. In questa sezione è possibile consultare i dati provenienti dalle centraline, interpretati attraverso output testuale e grafico.
Se vuoi aderire alla rete OMTeA vai alla pagina Info e leggi requisiti e vantaggi.

Stazione di Cefal¨ - www.meteocefalu.altervista.org

Valori rilevati il 20/06/2018 alle ore 22:59

Temperatura atmosferica: 22.4 °C
Pressione atmosferica: 1014.6 mbar
Umidità relativa: 74 %
Intensità e direzione vento: 1.7 Km/h da SSE

Altitudine: 20 metri s.l.m.
Latitudine: 38.02° N
Longitudine: 14.01° E



Entra nella rete OMTeA!. Potrai liberamente usare sul tuo sito questi grafici; info alla pagina Istruzioni.

Ultime 50 rilevazioni
Orario Temp
°C
Rugiada
°C
Prec.
mm
Press.
mbar
Umidità
%
Int. vento
km/h
Dir.
vento
22:59 - 20/06 22.4 17.5 0 1014.60 74 1.7 SSE
22:44 - 20/06 22.4 17.7 0 1014.40 75 0 --
22:29 - 20/06 22.3 17.9 0 1014.30 76 2.3 S
22:14 - 20/06 22.3 17.9 0 1014.30 76 0 --
21:59 - 20/06 22.2 18.0 0 1014.10 77 0 --
21:44 - 20/06 22.2 18.2 0 1014.10 78 0 --
21:29 - 20/06 22.4 18.4 0 1014.00 78 0 --
21:14 - 20/06 22.8 18.8 0 1013.90 78 1.4 ENE
20:59 - 20/06 22.9 18.6 0 1013.80 77 1.3 ENE
20:44 - 20/06 23.2 18.9 0 1013.70 77 1.4 NE
20:29 - 20/06 23.4 19.1 0 1013.70 77 0 --
20:14 - 20/06 23.6 19.3 0 1013.80 77 1.6 ENE
19:59 - 20/06 23.8 19.3 0 1013.80 76 2.3 ENE
19:44 - 20/06 23.9 19.4 0 1013.80 76 3.5 NE
19:29 - 20/06 24.0 19.3 0 1013.60 75 4.7 ENE
19:14 - 20/06 24.1 19.2 0 1013.60 74 5.8 ENE
18:59 - 20/06 24.1 19.4 0 1013.40 75 5.4 ENE
18:44 - 20/06 24.5 20.0 0 1013.40 76 5.7 NNE
18:29 - 20/06 24.6 19.6 0 1013.30 74 1.9 ENE
18:14 - 20/06 24.8 20.1 0 1013.30 75 1.7 ENE
17:59 - 20/06 24.8 20.1 0 1013.20 75 1.6 ENE
17:44 - 20/06 25.1 20.1 0 1013.30 74 1.9 NE
17:29 - 20/06 25.2 20.2 0 1013.20 74 1.6 NE
17:14 - 20/06 25.3 19.7 0 1013.20 71 0.2 ENE
16:59 - 20/06 25.0 19.8 0 1013.10 73 0 --
16:44 - 20/06 24.4 19.9 0 1013.10 76 2.7 NNO
16:29 - 20/06 24.2 19.9 0 1013.10 77 2.5 ONO
16:14 - 20/06 24.5 20.0 0 1013.30 76 1.6 OSO
15:59 - 20/06 24.8 20.3 0 1013.60 76 4.4 SSO
15:44 - 20/06 23.9 19.6 0 1013.60 77 1.2 ENE
15:29 - 20/06 23.9 19.6 0 1013.70 77 3.6 NE
15:14 - 20/06 24.1 20.0 0 1013.70 78 3.2 NNE
14:59 - 20/06 24.1 20.0 0 1013.60 78 3.3 ENE
14:44 - 20/06 24.0 19.9 0 1013.50 78 4.8 NE
14:29 - 20/06 24.1 20.2 0 1013.80 79 2.8 NE
14:14 - 20/06 24.1 20.2 0 1013.80 79 3.5 ENE
13:59 - 20/06 23.9 20.0 0 1014.00 79 4.2 E
13:44 - 20/06 24.0 20.3 0 1014.10 80 5.0 NE
13:29 - 20/06 24.1 20.2 0 1014.20 79 3.2 E
13:14 - 20/06 24.3 20.2 0 1014.00 78 5.8 NE
12:59 - 20/06 24.8 20.3 0 1014.10 76 2.3 E
12:44 - 20/06 25.4 20.4 0 1014.00 74 3.5 ENE
12:29 - 20/06 25.4 20.4 0 1014.00 74 5.1 NE
12:14 - 20/06 25.8 20.6 0 1013.90 73 1.2 ENE
11:59 - 20/06 25.5 20.3 0 1013.70 73 2.6 E
11:44 - 20/06 25.3 20.1 0 1013.70 73 1.9 ENE
11:29 - 20/06 25.2 19.8 0 1013.70 72 4.7 NE
11:14 - 20/06 25.8 20.1 0 1013.90 71 4.8 E
10:59 - 20/06 25.1 19.9 0 1013.80 73 1.7 E
10:44 - 20/06 24.6 19.6 0 1013.80 74 3.3 NE


   In caso di mancato funzionamento di qualche risorsa, vi preghiamo di segnalarcelo alla pagina Contatti.
© 2018 Osservatorio Meteo OMTeA
Sito di informazione su Meteo, Tempo in atto e Clima in Italia